LPFRLPPT

Guest
Details From LPFR - Faro
To LPPT - Lisboa
Flight Number -
Tags Generated
Created
Modified
Stats Distance 119 nm / 221 km
Max Altitude 0 ft / 0 m
Waypoints 2
Social Downloads 4
Likes 0
Share VATSIM

Download

Looking for another format? Having issues loading an existing format? Contact us
Advertisement - Login to hide

Notes

Generated

Route

LPFR LPPT

ID Type Via Altitude Latitude Longitude Leg Dist Tot Dist Heading (true) Name
O LPFR APT - 0 ft / 0 m 37.01729˚ -7.98609˚ - 0 nm - -
O LPPT APT - 0 ft / 0 m 38.78624˚ -9.13721˚ 119 nm 119 nm 333° / 332° -

Altitude Profile

Advertisement - Login to hide

LPFR

Details ICAO LPFR (FAO)
Name Faro
Region Portugal
Timezone Europe/Lisbon (UTC+0.0)
Stats Elevation 24 ft / 7 m (AMSL)
Location 37.015336° -7.972327°
Runways 1
Magnetic Variation 1.935° W

METAR

LPFR 170800Z 03005KT CAVOK 09/00 Q1027

Decode

TAF

TAF LPFR 170500Z 1706/1806 03010KT CAVOK BECMG 1709/1711 06012KT BECMG 1716/1718 01008KT BECMG 1722/1801 06012KT

Decode

Departure Runways

ID Width Length Bearing (true) Bearing (mag) Surface Threshold Offset Overrun Length
10 148 ft / 45 m 8,148 ft / 2,484 m 100.08° 102.01° Asphalt 148 ft / 45 m 0 ft / 0 m
28 148 ft / 45 m 8,148 ft / 2,484 m 280.10° 282.03° Asphalt 148 ft / 45 m 0 ft / 0 m

LPPT

Details ICAO LPPT (LIS)
Name Lisboa
Region Portugal
Timezone Europe/Lisbon (UTC+0.0)
Stats Elevation 374 ft / 114 m (AMSL)
Location 38.778559° -9.135146°
Runways 2
Magnetic Variation 2.363° W

METAR

LPPT 170800Z 01004KT CAVOK 06/01 Q1030

Decode

TAF

TAF LPPT 170500Z 1706/1812 04008KT CAVOK PROB30 1718/1801 35008KT

Decode

Destination Runways

ID Width Length Bearing (true) Bearing (mag) Surface Threshold Offset Overrun Length
03 148 ft / 45 m 12,518 ft / 3,815 m 22.70° 25.06° Asphalt 296 ft / 90 m 0 ft / 0 m
17 148 ft / 45 m 7,922 ft / 2,415 m 168.38° 170.74° Asphalt 0 ft / 0 m 0 ft / 0 m
21 148 ft / 45 m 12,518 ft / 3,815 m 202.72° 205.08° Asphalt 1,969 ft / 600 m 0 ft / 0 m
35 148 ft / 45 m 7,922 ft / 2,415 m 348.38° 350.74° Asphalt 492 ft / 150 m 0 ft / 0 m

Approach Navaids

Runway Type Ident Frequency Range Bearing (true) Bearing (mag) Slope Elevation
03 Localiser ILI 109.10 MHz 18 nm / 33 km 22.74° 25.10° - 335 ft / 102 m (AMSL)
03 Glidescope ILI 109.10 MHz 10 nm / 19 km 22.71° 25.07° 3.00° 419 ft / 128 m (AMSL)
03 DME ILI 109.10 MHz 18 nm / 33 km - - - 419 ft / 128 m (AMSL)
21 Localiser ILB 109.50 MHz 18 nm / 33 km 202.59° 204.95° - 335 ft / 102 m (AMSL)
21 Glidescope ILB 109.50 MHz 10 nm / 19 km 202.71° 205.07° 3.00° 423 ft / 129 m (AMSL)
21 DME ILB 109.50 MHz 18 nm / 33 km - - - 423 ft / 129 m (AMSL)

Popular Alternatives